createdAt,value
2022-11-12T00:01:20.142Z,96697.06
2022-11-12T00:04:15.018Z,96713.91
2022-11-12T00:07:02.172Z,96723.47
2022-11-12T00:09:48.232Z,96724.78
2022-11-12T00:12:34.756Z,96727.72
2022-11-12T00:15:20.941Z,96726.78
2022-11-12T00:18:08.430Z,96729.69
2022-11-12T00:20:56.217Z,96717.97
2022-11-12T00:23:42.635Z,96723.75
2022-11-12T00:26:29.062Z,96731.84
2022-11-12T00:29:15.323Z,96723.06
2022-11-12T00:32:01.875Z,96722.19
2022-11-12T00:34:48.388Z,96722.81
2022-11-12T00:37:36.167Z,96728.59
2022-11-12T00:40:22.383Z,96721.81
2022-11-12T00:43:08.956Z,96721.91
2022-11-12T00:45:55.497Z,96719.28
2022-11-12T00:48:42.288Z,96724.44
2022-11-12T00:51:28.820Z,96727.63
2022-11-12T00:54:16.693Z,96723.75
2022-11-12T00:57:03.304Z,96723.41
2022-11-12T00:59:49.846Z,96722.97
2022-11-12T01:02:42.241Z,96722.41
2022-11-12T01:05:29.613Z,96728.72
2022-11-12T01:08:16.178Z,96724.84
2022-11-12T01:11:12.489Z,96721.03
2022-11-12T01:14:02.157Z,96725.59
2022-11-12T01:16:48.765Z,96728.66
2022-11-12T01:19:35.574Z,96712.81
2022-11-12T01:22:21.988Z,96703.59
2022-11-12T01:25:09.117Z,96710.66
2022-11-12T01:27:57.094Z,96705.00
2022-11-12T01:30:43.544Z,96698.84
2022-11-12T01:33:30.072Z,96693.41
2022-11-12T01:36:19.096Z,96702.25
2022-11-12T01:39:06.659Z,96688.44
2022-11-12T01:41:52.907Z,96692.47
2022-11-12T01:44:45.799Z,96700.38
2022-11-12T01:47:35.722Z,96699.34
2022-11-12T01:50:26.622Z,96699.94
2022-11-12T01:53:15.114Z,96691.53
2022-11-12T01:56:04.372Z,96685.97
2022-11-12T01:58:54.836Z,96688.28
2022-11-12T02:01:42.455Z,96686.59
2022-11-12T02:04:29.216Z,96684.31
2022-11-12T02:07:16.465Z,96672.56
2022-11-12T02:10:04.358Z,96679.75
2022-11-12T02:13:10.202Z,96671.31
2022-11-12T02:15:57.075Z,96668.97
2022-11-12T02:18:44.873Z,96669.94
2022-11-12T02:21:32.852Z,96664.94
2022-11-12T02:24:37.884Z,96670.63
2022-11-12T02:27:25.235Z,96665.28
2022-11-12T02:30:12.347Z,96664.75
2022-11-12T02:32:58.801Z,96670.22
2022-11-12T02:35:45.056Z,96662.97
2022-11-12T02:38:33.123Z,96671.56
2022-11-12T02:41:19.451Z,96669.22
2022-11-12T02:44:05.944Z,96667.59
2022-11-12T02:46:52.343Z,96652.78
2022-11-12T02:49:38.633Z,96653.75
2022-11-12T02:52:24.955Z,96649.66
2022-11-12T02:55:13.979Z,96644.97
2022-11-12T02:58:00.759Z,96643.41
2022-11-12T03:00:48.352Z,96646.94
2022-11-12T03:03:37.270Z,96651.97
2022-11-12T03:06:24.018Z,96655.41
2022-11-12T03:09:12.304Z,96660.75
2022-11-12T03:11:59.859Z,96660.19
2022-11-12T03:14:46.397Z,96662.69
2022-11-12T03:17:34.999Z,96665.81
2022-11-12T03:20:21.554Z,96667.63
2022-11-12T03:23:10.510Z,96668.97
2022-11-12T03:25:56.889Z,96684.38
2022-11-12T03:28:44.762Z,96684.06
2022-11-12T03:31:30.967Z,96684.53
2022-11-12T03:34:17.595Z,96684.34
2022-11-12T03:37:04.302Z,96683.38
2022-11-12T03:39:50.683Z,96686.69
2022-11-12T03:42:37.215Z,96691.91
2022-11-12T03:45:26.457Z,96689.63
2022-11-12T03:48:12.913Z,96684.78
2022-11-12T03:50:59.647Z,96685.03
2022-11-12T03:53:46.391Z,96690.19
2022-11-12T03:56:32.710Z,96693.03
2022-11-12T03:59:18.917Z,96691.41
2022-11-12T04:02:06.776Z,96692.75
2022-11-12T04:05:16.608Z,96686.22
2022-11-12T04:08:23.885Z,96696.88
2022-11-12T04:11:12.880Z,96684.28
2022-11-12T04:13:58.897Z,96681.09
2022-11-12T04:17:02.641Z,96691.91
2022-11-12T04:20:07.105Z,96691.94
2022-11-12T04:22:53.579Z,96683.09
2022-11-12T04:25:59.038Z,96690.22
2022-11-12T04:29:06.003Z,96687.47
2022-11-12T04:31:51.642Z,96685.38
2022-11-12T04:34:37.913Z,96689.13
2022-11-12T04:37:26.959Z,96684.56
2022-11-12T04:40:32.733Z,96687.63
2022-11-12T04:43:36.866Z,96687.56
2022-11-12T04:46:23.478Z,96697.50
2022-11-12T04:49:10.039Z,96696.50
2022-11-12T04:52:08.434Z,96687.34
2022-11-12T04:54:56.483Z,96695.22
2022-11-12T04:57:42.794Z,96697.06
2022-11-12T05:00:29.964Z,96690.38
2022-11-12T05:03:16.443Z,96695.22
2022-11-12T05:06:25.818Z,96690.19
2022-11-12T05:09:12.309Z,96692.75
2022-11-12T05:12:00.478Z,96686.53
2022-11-12T05:14:47.087Z,96692.34
2022-11-12T05:17:33.444Z,96695.09
2022-11-12T05:20:19.863Z,96690.94
2022-11-12T05:23:07.656Z,96691.38
2022-11-12T05:25:54.161Z,96698.25
2022-11-12T05:28:42.027Z,96689.88
2022-11-12T05:31:28.563Z,96675.59
2022-11-12T05:34:18.609Z,96679.19
2022-11-12T05:37:09.058Z,96688.56
2022-11-12T05:39:56.646Z,96688.97
2022-11-12T05:42:43.365Z,96686.03
2022-11-12T05:45:30.914Z,96684.63
2022-11-12T05:48:23.034Z,96687.72
2022-11-12T05:51:14.124Z,96687.31
2022-11-12T05:54:02.461Z,96694.28
2022-11-12T05:56:49.828Z,96696.72
2022-11-12T05:59:36.125Z,96699.09
2022-11-12T06:02:23.966Z,96701.66
2022-11-12T06:05:10.728Z,96702.91
2022-11-12T06:07:57.206Z,96704.16
2022-11-12T06:10:44.175Z,96717.03
2022-11-12T06:13:30.859Z,96717.13
2022-11-12T06:16:17.059Z,96711.00
2022-11-12T06:19:04.994Z,96713.47
2022-11-12T06:21:51.701Z,96723.19
2022-11-12T06:24:38.215Z,96712.78
2022-11-12T06:27:24.939Z,96727.41
2022-11-12T06:30:13.263Z,96711.84
2022-11-12T06:32:59.766Z,96714.91
2022-11-12T06:35:47.804Z,96717.31
2022-11-12T06:38:36.208Z,96716.47
2022-11-12T06:41:22.426Z,96725.16
2022-11-12T06:44:08.860Z,96716.31
2022-11-12T06:46:55.780Z,96717.78
2022-11-12T06:49:42.062Z,96714.72
2022-11-12T06:52:29.806Z,96711.75
2022-11-12T06:55:16.504Z,96712.97
2022-11-12T06:58:03.006Z,96717.56
2022-11-12T07:00:49.486Z,96710.47
2022-11-12T07:03:36.417Z,96711.00
2022-11-12T07:06:22.845Z,96723.25
2022-11-12T07:09:11.857Z,96717.25
2022-11-12T07:11:58.326Z,96731.16
2022-11-12T07:14:44.868Z,96718.22
2022-11-12T07:17:32.137Z,96732.09
2022-11-12T07:20:18.520Z,96734.53
2022-11-12T07:23:04.749Z,96725.72
2022-11-12T07:26:01.865Z,96733.22
2022-11-12T07:28:48.362Z,96723.78
2022-11-12T07:31:34.676Z,96711.59
2022-11-12T07:34:20.985Z,96722.72
2022-11-12T07:37:07.488Z,96716.09
2022-11-12T07:39:53.877Z,96716.47
2022-11-12T07:42:41.826Z,96723.84
2022-11-12T07:45:28.222Z,96727.94
2022-11-12T07:48:14.429Z,96715.50
2022-11-12T07:51:02.882Z,96727.69
2022-11-12T07:53:56.254Z,96717.31
2022-11-12T07:56:45.526Z,96728.78
2022-11-12T07:59:33.419Z,96724.81
2022-11-12T08:02:19.977Z,96720.88
2022-11-12T08:05:13.744Z,96714.44
2022-11-12T08:08:02.801Z,96720.53
2022-11-12T08:10:49.197Z,96727.41
2022-11-12T08:13:35.638Z,96729.03
2022-11-12T08:16:23.557Z,96726.44
2022-11-12T08:19:09.905Z,96729.09
2022-11-12T08:21:56.842Z,96721.94
2022-11-12T08:24:43.457Z,96735.16
2022-11-12T08:27:29.904Z,96735.88
2022-11-12T08:30:16.425Z,96735.13
2022-11-12T08:33:06.779Z,96727.47
2022-11-12T08:35:53.692Z,96735.00
2022-11-12T08:38:40.489Z,96744.22
2022-11-12T08:41:27.027Z,96738.31
2022-11-12T08:44:13.944Z,96740.88
2022-11-12T08:47:01.543Z,96744.94
2022-11-12T08:49:52.953Z,96742.66
2022-11-12T08:52:40.147Z,96731.69
2022-11-12T08:55:27.033Z,96726.53
2022-11-12T08:58:14.247Z,96733.69
2022-11-12T09:01:05.946Z,96728.56
2022-11-12T09:03:52.423Z,96733.66
2022-11-12T09:06:40.258Z,96728.72
2022-11-12T09:09:26.752Z,96733.81
2022-11-12T09:12:19.667Z,96736.91
2022-11-12T09:15:36.231Z,96724.56
2022-11-12T09:18:16.897Z,96735.28
2022-11-12T09:21:06.220Z,96735.44
2022-11-12T09:23:53.957Z,96732.84
2022-11-12T09:26:40.715Z,96734.44
2022-11-12T09:29:27.052Z,96744.41
2022-11-12T09:32:13.498Z,96746.03
2022-11-12T09:35:00.321Z,96731.41
2022-11-12T09:37:46.548Z,96732.44
2022-11-12T09:40:49.878Z,96743.88
2022-11-12T09:43:41.543Z,96739.19
2022-11-12T09:46:42.222Z,96742.19
2022-11-12T09:49:32.349Z,96746.72
2022-11-12T09:52:22.806Z,96741.91
2022-11-12T09:55:18.673Z,96739.00
2022-11-12T09:58:12.068Z,96749.06
2022-11-12T10:01:02.573Z,96743.94
2022-11-12T10:03:57.093Z,96734.25
2022-11-12T10:06:51.937Z,96741.38
2022-11-12T10:09:47.478Z,96732.06
2022-11-12T10:12:46.631Z,96728.50
2022-11-12T10:15:57.493Z,96722.06
2022-11-12T10:18:55.971Z,96726.84
2022-11-12T10:21:52.280Z,96729.53
2022-11-12T10:24:41.221Z,96721.41
2022-11-12T10:27:35.287Z,96714.13
2022-11-12T10:30:23.847Z,96713.31
2022-11-12T10:33:15.360Z,96706.94
2022-11-12T10:36:16.076Z,96695.00
2022-11-12T10:39:02.600Z,96688.41
2022-11-12T10:42:03.806Z,96684.66
2022-11-12T10:44:51.824Z,96677.81
2022-11-12T10:47:43.748Z,96683.88
2022-11-12T10:50:37.483Z,96683.28
2022-11-12T10:53:36.873Z,96684.03
2022-11-12T10:56:27.153Z,96673.53
2022-11-12T10:59:18.012Z,96678.28
2022-11-12T11:02:04.757Z,96669.53
2022-11-12T11:04:51.353Z,96665.63
2022-11-12T11:07:39.531Z,96666.72
2022-11-12T11:10:28.456Z,96662.78
2022-11-12T11:13:25.396Z,96655.25
2022-11-12T11:16:15.371Z,96658.00
2022-11-12T11:19:06.169Z,96649.81
2022-11-12T11:22:06.474Z,96647.25
2022-11-12T11:25:06.834Z,96653.84
2022-11-12T11:28:05.790Z,96647.63
2022-11-12T11:31:00.209Z,96640.47
2022-11-12T11:33:57.487Z,96636.22
2022-11-12T11:36:55.185Z,96642.50
2022-11-12T11:39:50.440Z,96641.22
2022-11-12T11:42:55.752Z,96639.34
2022-11-12T11:45:57.442Z,96636.44
2022-11-12T11:49:06.038Z,96626.66
2022-11-12T11:52:00.561Z,96631.81
2022-11-12T11:55:05.536Z,96627.66
2022-11-12T11:58:06.067Z,96627.97
2022-11-12T12:01:01.645Z,96629.41
2022-11-12T12:04:04.711Z,96621.22
2022-11-12T12:07:13.556Z,96612.59
2022-11-12T12:10:09.508Z,96613.06
2022-11-12T12:13:05.384Z,96622.16
2022-11-12T12:16:18.864Z,96616.25
2022-11-12T12:19:13.722Z,96614.94
2022-11-12T12:22:02.322Z,96605.44
2022-11-12T12:24:51.739Z,96614.28
2022-11-12T12:27:47.948Z,96614.75
2022-11-12T12:30:41.135Z,96606.84
2022-11-12T12:33:33.960Z,96610.00
2022-11-12T12:36:27.069Z,96608.72
2022-11-12T12:39:16.249Z,96610.00
2022-11-12T12:42:06.771Z,96588.81
2022-11-12T12:45:05.020Z,96591.22
2022-11-12T12:47:55.162Z,96583.38
2022-11-12T12:50:43.506Z,96579.84
2022-11-12T12:53:35.464Z,96574.53
2022-11-12T12:56:44.729Z,96571.84
2022-11-12T12:59:31.539Z,96576.16
2022-11-12T13:02:22.222Z,96565.72
2022-11-12T13:05:25.305Z,96560.59
2022-11-12T13:08:14.958Z,96553.06
2022-11-12T13:11:01.526Z,96555.47
2022-11-12T13:13:47.735Z,96561.22
2022-11-12T13:16:59.322Z,96547.94
2022-11-12T13:19:51.084Z,96553.69
2022-11-12T13:22:52.503Z,96562.22
2022-11-12T13:25:42.336Z,96558.78
2022-11-12T13:28:29.207Z,96545.16
2022-11-12T13:31:29.951Z,96552.84
2022-11-12T13:34:28.337Z,96563.91
2022-11-12T13:37:21.207Z,96561.34
2022-11-12T13:40:15.497Z,96553.66
2022-11-12T13:43:07.989Z,96551.59
2022-11-12T13:46:00.317Z,96562.16
2022-11-12T13:48:49.836Z,96549.50
2022-11-12T13:51:40.554Z,96552.69
2022-11-12T13:54:33.048Z,96548.97
2022-11-12T13:57:32.653Z,96542.19
2022-11-12T14:00:28.183Z,96544.59
2022-11-12T14:03:20.285Z,96541.69
2022-11-12T14:06:16.234Z,96539.44
2022-11-12T14:09:27.258Z,96532.34
2022-11-12T14:12:27.911Z,96533.94
2022-11-12T14:15:30.655Z,96537.56
2022-11-12T14:18:25.121Z,96526.31
2022-11-12T14:21:16.749Z,96515.22
2022-11-12T14:24:05.465Z,96521.66
2022-11-12T14:26:52.406Z,96511.97
2022-11-12T14:29:43.404Z,96503.75
2022-11-12T14:32:38.222Z,96512.97
2022-11-12T14:35:32.045Z,96502.88
2022-11-12T14:38:21.579Z,96488.84
2022-11-12T14:41:11.200Z,96485.09
2022-11-12T14:44:12.072Z,96494.31
2022-11-12T14:47:00.269Z,96491.84
2022-11-12T14:49:50.756Z,96472.63
2022-11-12T14:52:42.597Z,96481.91
2022-11-12T14:55:32.757Z,96487.31
2022-11-12T14:58:21.317Z,96474.91
2022-11-12T15:02:03.848Z,96479.94
2022-11-12T15:04:38.258Z,96479.34
2022-11-12T15:07:28.629Z,96470.78
2022-11-12T15:10:33.222Z,96467.78
2022-11-12T15:13:22.244Z,96467.84
2022-11-12T15:16:10.441Z,96468.13
2022-11-12T15:19:20.942Z,96459.41
2022-11-12T15:22:07.426Z,96451.16
2022-11-12T15:24:55.304Z,96451.03
2022-11-12T15:27:42.919Z,96443.72
2022-11-12T15:30:31.814Z,96455.97
2022-11-12T15:33:22.885Z,96453.56
2022-11-12T15:36:18.737Z,96452.66
2022-11-12T15:39:06.101Z,96453.09
2022-11-12T15:42:01.205Z,96450.00
2022-11-12T15:44:48.475Z,96443.16
2022-11-12T15:47:34.643Z,96437.03
2022-11-12T15:50:22.682Z,96439.63
2022-11-12T15:53:08.765Z,96439.91
2022-11-12T15:55:55.603Z,96442.84
2022-11-12T15:58:43.282Z,96441.25
2022-11-12T16:01:29.457Z,96442.44
2022-11-12T16:04:16.145Z,96445.25
2022-11-12T16:07:06.739Z,96436.94
2022-11-12T16:09:54.173Z,96442.56
2022-11-12T16:12:40.669Z,96437.88
2022-11-12T16:15:28.864Z,96421.13
2022-11-12T16:18:15.108Z,96424.31
2022-11-12T16:21:01.475Z,96425.00
2022-11-12T16:23:48.026Z,96431.44
2022-11-12T16:26:35.292Z,96426.22
2022-11-12T16:29:21.837Z,96428.47
2022-11-12T16:32:13.519Z,96424.84
2022-11-12T16:35:01.274Z,96431.16
2022-11-12T16:37:48.966Z,96422.19
2022-11-12T16:40:35.490Z,96423.13
2022-11-12T16:43:22.006Z,96427.69
2022-11-12T16:46:24.820Z,96429.84
2022-11-12T16:49:14.716Z,96423.53
2022-11-12T16:52:01.178Z,96425.69
2022-11-12T16:54:47.757Z,96435.19
2022-11-12T16:57:34.380Z,96424.22
2022-11-12T17:00:21.296Z,96423.81
2022-11-12T17:03:08.480Z,96423.66
2022-11-12T17:05:56.365Z,96423.94
2022-11-12T17:08:44.462Z,96421.09
2022-11-12T17:11:30.841Z,96420.16
2022-11-12T17:14:18.387Z,96420.56
2022-11-12T17:17:04.929Z,96418.97
2022-11-12T17:19:51.442Z,96414.16
2022-11-12T17:22:39.332Z,96414.97
2022-11-12T17:25:25.550Z,96408.13
2022-11-12T17:28:12.110Z,96410.81
2022-11-12T17:31:11.018Z,96407.41
2022-11-12T17:33:57.132Z,96412.50
2022-11-12T17:36:44.093Z,96414.25
2022-11-12T17:39:31.945Z,96406.88
2022-11-12T17:42:19.236Z,96409.81
2022-11-12T17:45:06.199Z,96409.00
2022-11-12T17:47:52.393Z,96406.59
2022-11-12T17:50:38.846Z,96399.63
2022-11-12T17:53:25.351Z,96397.16
2022-11-12T17:56:15.682Z,96394.34
2022-11-12T17:59:02.767Z,96396.13
2022-11-12T18:01:48.936Z,96396.00
2022-11-12T18:04:35.573Z,96381.13
2022-11-12T18:07:21.980Z,96379.38
2022-11-12T18:10:08.407Z,96373.34
2022-11-12T18:12:56.455Z,96378.16
2022-11-12T18:15:42.862Z,96376.69
2022-11-12T18:18:29.252Z,96374.53
2022-11-12T18:21:16.881Z,96377.53
2022-11-12T18:24:03.411Z,96373.53
2022-11-12T18:26:49.892Z,96374.47
2022-11-12T18:29:40.212Z,96371.13
2022-11-12T18:32:26.767Z,96372.72
2022-11-12T18:35:13.403Z,96368.44
2022-11-12T18:38:00.694Z,96368.84
2022-11-12T18:40:47.014Z,96361.47
2022-11-12T18:43:33.692Z,96366.84
2022-11-12T18:46:21.484Z,96361.22
2022-11-12T18:49:08.220Z,96362.69
2022-11-12T18:51:54.617Z,96361.47
2022-11-12T18:54:41.023Z,96353.16
2022-11-12T18:57:27.342Z,96357.50
2022-11-12T19:00:15.610Z,96349.00
2022-11-12T19:03:03.506Z,96356.25
2022-11-12T19:05:58.822Z,96342.84
2022-11-12T19:08:45.062Z,96351.03
2022-11-12T19:11:31.648Z,96348.47
2022-11-12T19:14:17.866Z,96340.97
2022-11-12T19:17:07.045Z,96337.22
2022-11-12T19:19:54.626Z,96346.47
2022-11-12T19:22:41.006Z,96340.69
2022-11-12T19:25:27.201Z,96345.78
2022-11-12T19:28:13.733Z,96338.69
2022-11-12T19:31:04.647Z,96327.69
2022-11-12T19:33:51.952Z,96331.59
2022-11-12T19:36:41.005Z,96322.72
2022-11-12T19:39:27.514Z,96326.09
2022-11-12T19:42:14.052Z,96317.38
2022-11-12T19:45:00.690Z,96319.28
2022-11-12T19:47:47.632Z,96320.88
2022-11-12T19:50:37.045Z,96323.69
2022-11-12T19:53:24.855Z,96325.41
2022-11-12T19:56:13.543Z,96322.59
2022-11-12T19:59:01.716Z,96325.97
2022-11-12T20:01:47.945Z,96321.00
2022-11-12T20:04:34.839Z,96309.09
2022-11-12T20:07:21.501Z,96308.00
2022-11-12T20:10:10.684Z,96307.34
2022-11-12T20:12:56.928Z,96301.44
2022-11-12T20:15:43.479Z,96295.69
2022-11-12T20:18:29.966Z,96304.38
2022-11-12T20:21:16.833Z,96296.91
2022-11-12T20:24:03.394Z,96293.84
2022-11-12T20:26:51.264Z,96280.72
2022-11-12T20:29:37.672Z,96285.66
2022-11-12T20:32:24.211Z,96288.06
2022-11-12T20:35:15.215Z,96284.56
2022-11-12T20:38:04.443Z,96287.78
2022-11-12T20:40:58.500Z,96284.44
2022-11-12T20:43:46.821Z,96284.47
2022-11-12T20:46:33.382Z,96278.72
2022-11-12T20:49:19.871Z,96279.78
2022-11-12T20:52:06.437Z,96278.31
2022-11-12T20:54:53.014Z,96280.69
2022-11-12T20:57:39.573Z,96269.69
2022-11-12T21:00:27.044Z,96266.31
2022-11-12T21:03:13.657Z,96260.84
2022-11-12T21:06:00.812Z,96259.91
2022-11-12T21:08:47.821Z,96266.38
2022-11-12T21:11:34.424Z,96265.28
2022-11-12T21:14:20.787Z,96263.81
2022-11-12T21:17:08.820Z,96259.50
2022-11-12T21:19:55.362Z,96264.50
2022-11-12T21:22:41.979Z,96258.09
2022-11-12T21:25:28.403Z,96242.22
2022-11-12T21:28:14.806Z,96252.53
2022-11-12T21:31:06.378Z,96245.28
2022-11-12T21:33:55.510Z,96245.84
2022-11-12T21:36:42.063Z,96245.53
2022-11-12T21:39:28.312Z,96239.19
2022-11-12T21:42:14.782Z,96233.56
2022-11-12T21:45:01.192Z,96224.56
2022-11-12T21:47:47.769Z,96220.50
2022-11-12T21:50:35.453Z,96222.25
2022-11-12T21:53:21.975Z,96223.78
2022-11-12T21:56:11.484Z,96220.44
2022-11-12T21:59:00.479Z,96226.31
2022-11-12T22:01:46.914Z,96221.59
2022-11-12T22:04:33.483Z,96228.97
2022-11-12T22:07:21.434Z,96223.34
2022-11-12T22:10:08.546Z,96222.19
2022-11-12T22:13:24.894Z,96225.13
2022-11-12T22:16:06.581Z,96227.28
2022-11-12T22:18:55.200Z,96215.22
2022-11-12T22:21:41.755Z,96222.69
2022-11-12T22:24:29.468Z,96219.63
2022-11-12T22:27:16.081Z,96218.03
2022-11-12T22:30:02.578Z,96218.53
2022-11-12T22:32:48.881Z,96220.78
2022-11-12T22:35:35.574Z,96216.16
2022-11-12T22:38:21.902Z,96208.25
2022-11-12T22:41:11.289Z,96207.84
2022-11-12T22:43:59.544Z,96207.44
2022-11-12T22:46:46.170Z,96200.88
2022-11-12T22:49:32.657Z,96195.41
2022-11-12T22:52:18.913Z,96193.66
2022-11-12T22:55:06.319Z,96198.38
2022-11-12T22:57:53.964Z,96197.44
2022-11-12T23:00:40.530Z,96195.53
2022-11-12T23:03:26.836Z,96191.16
2022-11-12T23:06:13.356Z,96178.94
2022-11-12T23:09:00.671Z,96172.38
2022-11-12T23:11:47.057Z,96170.00
2022-11-12T23:14:35.294Z,96174.84
2022-11-12T23:17:21.504Z,96173.50
2022-11-12T23:20:09.451Z,96173.34
2022-11-12T23:22:55.759Z,96167.47
2022-11-12T23:25:42.239Z,96168.91
2022-11-12T23:28:28.826Z,96171.19
2022-11-12T23:31:18.949Z,96165.34
2022-11-12T23:34:05.683Z,96170.88
2022-11-12T23:36:51.915Z,96163.25
2022-11-12T23:39:38.861Z,96151.22
2022-11-12T23:42:25.499Z,96155.09
2022-11-12T23:45:12.376Z,96140.16
2022-11-12T23:47:59.975Z,96129.31
2022-11-12T23:50:47.440Z,96141.91
2022-11-12T23:53:35.322Z,96130.81
2022-11-12T23:56:21.825Z,96135.34
2022-11-12T23:59:08.196Z,96130.16
